Time;durP1;ratioP1;P1;durP2;ratioP2;P2;SDS_P1;SDS_P2;PMS_P1;PMS_P2;Temp;Humidity;BMP_temperature;BMP_pressure;BME280_temperature;BME280_humidity;BME280_pressure;Samples;Min_cycle;Max_cycle;Signal;HPM_P1;HPM_P2
2023/08/01 00:02:35;;;;;;;8.90;5.60;;;18.20;99.90;;;;;;5042887;28;20951;-74
2023/08/01 00:05:20;;;;;;;11.90;5.27;;;18.20;99.90;;;;;;5042796;28;21035;-74
2023/08/01 00:08:05;;;;;;;9.07;4.87;;;18.20;99.90;;;;;;5041960;28;22404;-74
2023/08/01 00:10:52;;;;;;;8.20;4.67;;;18.10;99.90;;;;;;5037074;28;20469;-74
2023/08/01 00:13:38;;;;;;;9.20;4.30;;;18.10;99.90;;;;;;5041083;28;20449;-74
2023/08/01 00:16:23;;;;;;;8.60;4.77;;;18.10;99.90;;;;;;5040468;28;20528;-74
2023/08/01 00:19:09;;;;;;;7.60;4.53;;;18.10;99.90;;;;;;5041735;28;20435;-74
2023/08/01 00:21:55;;;;;;;12.23;5.90;;;18.00;99.90;;;;;;5035655;28;20441;-74
2023/08/01 00:24:40;;;;;;;10.60;5.53;;;17.90;99.90;;;;;;5045589;28;20426;-74
2023/08/01 00:27:28;;;;;;;8.77;4.87;;;18.00;99.90;;;;;;5039419;28;20590;-74
2023/08/01 00:30:13;;;;;;;11.83;5.13;;;18.00;99.90;;;;;;5035156;28;20550;-74
2023/08/01 00:32:59;;;;;;;9.57;5.20;;;18.00;99.90;;;;;;5041537;28;20467;-74
2023/08/01 00:35:44;;;;;;;11.40;6.07;;;18.10;99.90;;;;;;5037881;28;20420;-74
2023/08/01 00:38:30;;;;;;;10.90;5.53;;;18.10;99.90;;;;;;5037690;28;20406;-74
2023/08/01 00:41:16;;;;;;;7.73;4.80;;;18.10;99.90;;;;;;5040631;28;20472;-74
2023/08/01 00:44:02;;;;;;;11.47;5.00;;;18.00;99.90;;;;;;5038540;28;20470;-74
2023/08/01 00:46:48;;;;;;;13.80;5.03;;;18.00;99.90;;;;;;5038907;28;20524;-74
2023/08/01 00:49:34;;;;;;;7.23;5.00;;;18.00;99.90;;;;;;5045340;28;20482;-74
2023/08/01 00:52:19;;;;;;;17.43;5.40;;;18.00;99.90;;;;;;5041486;28;20441;-74
2023/08/01 00:55:06;;;;;;;9.27;4.77;;;17.90;99.90;;;;;;5047170;28;20482;-74
2023/08/01 00:57:53;;;;;;;12.73;6.13;;;17.90;99.90;;;;;;5041355;28;21766;-74
2023/08/01 01:00:40;;;;;;;16.83;5.50;;;17.90;99.90;;;;;;5044625;28;20796;-74
2023/08/01 01:03:26;;;;;;;7.20;5.20;;;17.90;99.90;;;;;;5042504;28;20418;-74
2023/08/01 01:06:16;;;;;;;10.50;5.00;;;18.00;99.90;;;;;;5040201;28;20822;-74
2023/08/01 01:09:04;;;;;;;15.33;4.93;;;18.00;99.90;;;;;;5045384;28;21040;-74
2023/08/01 01:11:50;;;;;;;13.50;5.03;;;18.00;99.90;;;;;;5036234;28;20426;-74
2023/08/01 01:14:36;;;;;;;10.47;5.07;;;18.00;99.90;;;;;;5040951;28;20442;-74
2023/08/01 01:17:22;;;;;;;7.00;5.33;;;18.00;99.90;;;;;;5031292;28;20959;-74
2023/08/01 01:20:08;;;;;;;8.97;4.53;;;18.10;99.90;;;;;;5038804;28;20963;-74
2023/08/01 01:22:56;;;;;;;7.33;5.10;;;18.10;99.90;;;;;;5041306;28;20429;-74
2023/08/01 01:25:43;;;;;;;6.23;4.97;;;18.20;99.90;;;;;;5040160;28;20784;-74
2023/08/01 01:28:29;;;;;;;8.40;5.40;;;18.20;99.90;;;;;;5041181;28;20441;-74
2023/08/01 01:31:16;;;;;;;7.70;5.03;;;18.20;99.90;;;;;;5042272;28;20517;-74
2023/08/01 01:34:02;;;;;;;8.60;5.20;;;18.20;99.90;;;;;;5050338;28;20417;-74
2023/08/01 01:36:48;;;;;;;9.20;5.27;;;18.20;99.90;;;;;;5038288;28;20995;-74
2023/08/01 01:39:35;;;;;;;13.70;5.20;;;18.10;99.90;;;;;;5043879;28;20972;-74
2023/08/01 01:42:20;;;;;;;11.87;5.50;;;18.20;99.90;;;;;;5034132;28;20491;-74
2023/08/01 01:45:06;;;;;;;9.00;5.37;;;18.10;99.90;;;;;;5045320;28;20414;-74
2023/08/01 01:47:52;;;;;;;11.03;5.40;;;18.20;99.90;;;;;;5047713;28;20914;-74
2023/08/01 01:50:38;;;;;;;10.80;5.57;;;18.10;99.90;;;;;;5049155;28;20471;-74
2023/08/01 01:53:23;;;;;;;10.57;5.27;;;18.10;99.90;;;;;;5044673;28;20446;-74
2023/08/01 01:56:10;;;;;;;19.60;5.30;;;18.10;99.90;;;;;;5042179;28;20423;-74
2023/08/01 01:58:56;;;;;;;7.93;4.50;;;18.00;99.90;;;;;;5044083;28;20472;-74
2023/08/01 02:01:41;;;;;;;6.77;4.97;;;18.00;99.90;;;;;;5046158;28;21001;-74
2023/08/01 02:04:27;;;;;;;12.23;5.17;;;18.00;99.90;;;;;;5045344;28;20464;-74
2023/08/01 02:07:14;;;;;;;7.60;5.07;;;18.00;99.90;;;;;;5045929;28;20504;-74
2023/08/01 02:09:59;;;;;;;12.20;5.20;;;18.10;99.90;;;;;;5045548;28;20445;-74
2023/08/01 02:12:46;;;;;;;11.00;6.63;;;18.10;99.90;;;;;;5040454;28;20502;-74
2023/08/01 02:15:31;;;;;;;12.20;5.80;;;18.10;99.90;;;;;;5045413;28;20422;-74
2023/08/01 02:18:17;;;;;;;6.93;4.60;;;18.10;99.90;;;;;;5048310;28;20643;-74
2023/08/01 02:21:02;;;;;;;9.67;5.30;;;18.00;99.90;;;;;;5039238;28;20513;-74
2023/08/01 02:23:48;;;;;;;10.33;5.23;;;18.00;99.90;;;;;;5045075;28;21113;-74
2023/08/01 02:26:33;;;;;;;6.80;4.70;;;18.10;99.90;;;;;;5046469;28;20422;-74
2023/08/01 02:29:20;;;;;;;8.33;5.10;;;18.10;99.90;;;;;;5044260;28;20452;-74
2023/08/01 02:32:06;;;;;;;9.27;4.47;;;18.00;99.90;;;;;;5040726;28;20533;-74
2023/08/01 02:34:52;;;;;;;7.90;5.13;;;18.00;99.90;;;;;;5036568;28;20435;-74
2023/08/01 02:37:37;;;;;;;9.03;6.27;;;18.00;99.90;;;;;;5041589;28;20470;-74
2023/08/01 02:40:23;;;;;;;10.97;5.10;;;18.10;99.90;;;;;;5048563;28;21092;-74
2023/08/01 02:43:08;;;;;;;9.57;5.67;;;18.10;99.90;;;;;;5041060;28;20443;-74
2023/08/01 02:45:55;;;;;;;10.83;5.20;;;18.00;99.90;;;;;;5041171;28;20568;-74
2023/08/01 02:48:41;;;;;;;9.43;5.50;;;18.00;99.90;;;;;;5043091;28;20460;-74
2023/08/01 02:51:26;;;;;;;10.47;5.80;;;18.00;99.90;;;;;;5042449;28;20488;-74
2023/08/01 02:54:12;;;;;;;9.90;5.70;;;18.00;99.90;;;;;;5040019;28;20538;-74
2023/08/01 02:56:57;;;;;;;8.77;5.90;;;18.00;99.90;;;;;;5041591;28;20453;-74
2023/08/01 02:59:43;;;;;;;10.83;6.07;;;17.90;99.90;;;;;;5043957;28;20431;-74
2023/08/01 03:02:30;;;;;;;10.43;6.40;;;17.90;99.90;;;;;;5036714;28;20418;-74
2023/08/01 03:05:16;;;;;;;13.13;6.30;;;18.00;99.90;;;;;;5046271;28;20448;-74
2023/08/01 03:08:01;;;;;;;14.00;5.73;;;18.00;99.90;;;;;;5036725;28;20467;-74
2023/08/01 03:10:47;;;;;;;12.47;6.20;;;18.00;99.90;;;;;;5044969;28;20527;-74
2023/08/01 03:13:32;;;;;;;9.20;5.30;;;18.00;99.90;;;;;;5040414;28;20516;-74
2023/08/01 03:16:18;;;;;;;15.10;5.67;;;18.00;99.90;;;;;;5039468;28;20490;-74
2023/08/01 03:19:05;;;;;;;13.30;5.97;;;18.00;99.90;;;;;;5046914;28;20956;-74
2023/08/01 03:21:50;;;;;;;11.47;5.97;;;18.00;99.90;;;;;;5036197;28;20489;-74
2023/08/01 03:24:36;;;;;;;10.53;4.77;;;18.00;99.90;;;;;;5043034;28;20903;-74
2023/08/01 03:27:21;;;;;;;8.53;5.10;;;18.10;99.90;;;;;;5039483;28;20440;-74
2023/08/01 03:30:08;;;;;;;8.90;5.10;;;18.10;99.90;;;;;;5040574;28;20808;-74
2023/08/01 03:32:54;;;;;;;9.30;5.10;;;18.20;99.90;;;;;;5043985;28;21011;-74
2023/08/01 03:35:40;;;;;;;10.13;4.90;;;18.10;99.90;;;;;;5043417;28;20558;-74
2023/08/01 03:38:26;;;;;;;9.40;4.50;;;18.10;99.90;;;;;;5038788;28;20415;-74
2023/08/01 03:41:12;;;;;;;9.33;5.77;;;18.10;99.90;;;;;;5037113;28;20433;-74
2023/08/01 03:43:57;;;;;;;7.27;4.80;;;18.10;99.90;;;;;;5042572;28;20811;-74
2023/08/01 03:46:43;;;;;;;7.60;5.10;;;18.10;99.90;;;;;;5041381;28;20573;-74
2023/08/01 03:49:29;;;;;;;8.27;5.33;;;18.10;99.90;;;;;;5046572;28;20634;-74
2023/08/01 03:52:16;;;;;;;12.20;6.73;;;18.10;99.90;;;;;;5042603;28;20486;-74
2023/08/01 03:55:01;;;;;;;9.30;5.90;;;18.10;99.90;;;;;;5037655;28;20473;-74
2023/08/01 03:57:47;;;;;;;10.27;5.40;;;18.10;99.90;;;;;;5045195;28;20415;-74
2023/08/01 04:00:33;;;;;;;9.90;5.33;;;18.10;99.90;;;;;;5039378;28;21051;-74
2023/08/01 04:03:19;;;;;;;10.03;5.20;;;18.10;99.90;;;;;;5041761;28;20565;-74
2023/08/01 04:06:04;;;;;;;8.93;4.80;;;18.10;99.90;;;;;;5046441;28;20458;-74
2023/08/01 04:08:52;;;;;;;9.00;4.60;;;18.10;99.90;;;;;;5041723;28;20481;-74
2023/08/01 04:11:37;;;;;;;8.80;4.73;;;18.10;99.90;;;;;;5044315;28;21072;-74
2023/08/01 04:14:23;;;;;;;9.33;4.90;;;18.00;99.90;;;;;;5039467;28;20455;-74
2023/08/01 04:17:08;;;;;;;9.93;5.97;;;18.00;99.90;;;;;;5043838;28;21988;-74
2023/08/01 04:19:54;;;;;;;12.40;5.00;;;18.00;99.90;;;;;;5048532;28;20580;-74
2023/08/01 04:22:39;;;;;;;9.20;5.50;;;18.00;99.90;;;;;;5046338;28;20988;-74
2023/08/01 04:25:27;;;;;;;8.07;5.63;;;18.00;99.90;;;;;;5042437;28;21139;-74
2023/08/01 04:28:13;;;;;;;8.83;4.63;;;18.00;99.90;;;;;;5043355;28;20603;-74
2023/08/01 04:30:59;;;;;;;8.90;5.13;;;17.90;99.90;;;;;;5045039;28;21150;-74
2023/08/01 04:33:44;;;;;;;11.17;4.80;;;17.90;99.90;;;;;;5039526;28;20426;-74
2023/08/01 04:36:30;;;;;;;9.20;4.33;;;17.90;99.90;;;;;;5038870;28;20899;-74
2023/08/01 04:39:15;;;;;;;8.70;5.07;;;18.00;99.90;;;;;;5043529;28;22242;-74
2023/08/01 04:42:02;;;;;;;8.00;4.37;;;18.00;99.90;;;;;;5041949;28;20960;-74
2023/08/01 04:44:47;;;;;;;9.93;4.90;;;18.00;99.90;;;;;;5041600;28;20473;-74
2023/08/01 04:47:33;;;;;;;8.90;4.53;;;18.00;99.90;;;;;;5038687;28;20512;-74
2023/08/01 04:50:18;;;;;;;9.57;4.60;;;18.00;99.90;;;;;;5034107;28;20848;-72
2023/08/01 04:53:06;;;;;;;15.80;5.37;;;18.00;99.90;;;;;;5040333;28;20451;-74
2023/08/01 04:55:51;;;;;;;9.93;4.40;;;18.00;99.90;;;;;;5040978;28;20439;-73
2023/08/01 04:58:38;;;;;;;6.00;4.27;;;18.00;99.90;;;;;;5042720;28;20493;-72
2023/08/01 05:01:24;;;;;;;21.93;4.47;;;18.00;99.90;;;;;;5036647;28;20468;-75
2023/08/01 05:04:09;;;;;;;9.50;4.10;;;18.00;99.90;;;;;;5046735;28;20900;-74
2023/08/01 05:06:55;;;;;;;7.93;4.43;;;18.00;99.90;;;;;;5042710;28;20434;-75
2023/08/01 05:09:40;;;;;;;9.20;5.00;;;18.00;99.90;;;;;;5043042;28;21017;-75
2023/08/01 05:12:26;;;;;;;9.63;4.57;;;18.10;99.90;;;;;;5041683;28;20574;-74
2023/08/01 05:15:13;;;;;;;7.50;4.00;;;18.00;99.90;;;;;;5041406;28;20832;-74
2023/08/01 05:17:58;;;;;;;12.30;4.90;;;18.00;99.90;;;;;;5041141;28;20455;-75
2023/08/01 05:20:44;;;;;;;10.07;4.77;;;18.00;99.90;;;;;;5044021;28;20916;-74
2023/08/01 05:23:29;;;;;;;6.50;3.83;;;17.90;99.90;;;;;;5034957;28;20411;-74
2023/08/01 05:26:15;;;;;;;7.10;4.60;;;17.80;99.90;;;;;;5039791;28;20568;-73
2023/08/01 05:29:00;;;;;;;11.97;5.13;;;17.80;99.90;;;;;;5048509;28;20545;-75
2023/08/01 05:31:47;;;;;;;7.87;4.97;;;17.80;99.90;;;;;;5040322;28;20480;-74
2023/08/01 05:34:33;;;;;;;7.00;4.43;;;17.80;99.90;;;;;;5039735;28;20978;-75
2023/08/01 05:37:18;;;;;;;10.60;5.33;;;17.90;99.90;;;;;;5038099;28;20456;-75
2023/08/01 05:40:04;;;;;;;8.40;5.10;;;17.90;99.90;;;;;;5029773;28;20843;-75
2023/08/01 05:42:49;;;;;;;7.60;4.80;;;17.90;99.90;;;;;;5040971;28;20411;-75
2023/08/01 05:45:35;;;;;;;8.67;4.77;;;17.90;99.90;;;;;;5041246;28;20444;-74
2023/08/01 05:48:22;;;;;;;6.00;4.67;;;17.80;99.90;;;;;;5038375;28;20436;-75
2023/08/01 05:51:08;;;;;;;7.53;4.70;;;17.80;99.90;;;;;;5041828;28;20659;-74
2023/08/01 05:53:53;;;;;;;6.33;4.63;;;17.80;99.90;;;;;;5037048;28;20990;-74
2023/08/01 05:56:39;;;;;;;7.73;5.30;;;17.80;99.90;;;;;;5044723;28;20416;-74
2023/08/01 05:59:24;;;;;;;7.53;5.00;;;17.80;99.90;;;;;;5040091;28;20555;-74
2023/08/01 06:02:10;;;;;;;10.07;5.93;;;17.80;99.90;;;;;;5037099;28;20423;-74
2023/08/01 06:04:57;;;;;;;9.73;5.20;;;17.70;99.90;;;;;;5038273;28;20448;-74
2023/08/01 06:07:42;;;;;;;10.70;6.30;;;17.70;99.90;;;;;;5038271;28;20521;-74
2023/08/01 06:10:27;;;;;;;8.47;6.00;;;17.70;99.90;;;;;;5037558;28;20475;-74
2023/08/01 06:13:13;;;;;;;9.50;5.47;;;17.60;99.90;;;;;;5032708;28;20447;-74
2023/08/01 06:15:59;;;;;;;9.30;6.23;;;17.50;99.90;;;;;;5039172;28;20486;-74
2023/08/01 06:18:44;;;;;;;13.07;7.80;;;17.40;99.90;;;;;;5041144;28;20908;-72
2023/08/01 06:21:31;;;;;;;10.23;6.20;;;17.30;99.90;;;;;;5044420;28;20518;-72
2023/08/01 06:24:17;;;;;;;10.40;6.83;;;17.30;99.90;;;;;;5041525;28;20423;-72
2023/08/01 06:27:02;;;;;;;6.37;4.73;;;17.30;99.90;;;;;;5042239;28;20802;-72
2023/08/01 06:29:48;;;;;;;8.40;5.43;;;17.30;99.90;;;;;;5047699;28;20448;-73
2023/08/01 06:32:34;;;;;;;7.40;3.90;;;17.40;99.90;;;;;;5040348;28;20786;-72
2023/08/01 06:35:20;;;;;;;8.33;5.17;;;17.40;99.90;;;;;;5046950;28;20446;-72
2023/08/01 06:38:07;;;;;;;7.83;5.27;;;17.40;99.90;;;;;;5041774;28;20431;-72
2023/08/01 06:40:52;;;;;;;8.83;5.00;;;17.50;99.90;;;;;;5041446;28;20957;-72
2023/08/01 06:43:38;;;;;;;5.77;4.80;;;17.40;99.90;;;;;;5043551;28;20828;-72
2023/08/01 06:46:24;;;;;;;7.50;4.57;;;17.50;99.90;;;;;;5038741;28;20480;-72
2023/08/01 06:49:09;;;;;;;10.10;5.00;;;17.40;99.90;;;;;;5043825;28;20460;-72
2023/08/01 06:51:55;;;;;;;6.50;4.83;;;17.40;99.90;;;;;;5046064;28;20440;-73
2023/08/01 06:54:42;;;;;;;5.97;4.43;;;17.40;99.90;;;;;;5045320;28;20573;-72
2023/08/01 06:57:27;;;;;;;6.53;4.70;;;17.40;99.90;;;;;;5034861;28;20446;-72
2023/08/01 07:00:13;;;;;;;7.70;4.60;;;17.40;99.90;;;;;;5028694;28;21271;-73
2023/08/01 07:02:59;;;;;;;9.83;5.20;;;17.40;99.90;;;;;;5043541;28;20486;-72
2023/08/01 07:05:45;;;;;;;9.43;4.43;;;17.40;99.90;;;;;;5037297;28;20432;-72
2023/08/01 07:08:32;;;;;;;6.80;5.17;;;17.30;99.90;;;;;;5043662;28;20536;-72
2023/08/01 07:11:18;;;;;;;8.83;4.97;;;17.40;99.90;;;;;;5037017;28;20535;-72
2023/08/01 07:14:04;;;;;;;7.93;4.53;;;17.40;99.90;;;;;;5052880;28;20439;-72
2023/08/01 07:16:49;;;;;;;6.27;4.43;;;17.40;99.90;;;;;;5040790;28;20450;-73
2023/08/01 07:19:35;;;;;;;10.27;4.93;;;17.50;99.90;;;;;;5039738;28;21518;-75
2023/08/01 07:22:20;;;;;;;8.40;4.30;;;17.40;99.90;;;;;;5039861;28;20502;-72
2023/08/01 07:25:07;;;;;;;8.37;4.80;;;17.40;99.90;;;;;;5039659;28;20434;-72
2023/08/01 07:27:53;;;;;;;9.53;5.20;;;17.50;99.90;;;;;;5038471;28;20452;-73
2023/08/01 07:30:39;;;;;;;8.50;4.20;;;17.40;99.90;;;;;;5031189;28;22236;-76
2023/08/01 07:33:25;;;;;;;6.20;3.90;;;17.40;99.90;;;;;;5041749;28;20852;-72
2023/08/01 07:36:10;;;;;;;6.27;3.90;;;17.50;99.90;;;;;;5042370;28;20793;-75
2023/08/01 07:38:56;;;;;;;7.40;4.63;;;17.60;99.90;;;;;;5038959;28;20457;-73
2023/08/01 07:41:41;;;;;;;5.07;3.90;;;17.60;99.90;;;;;;5036655;28;20605;-73
2023/08/01 07:44:29;;;;;;;5.00;3.33;;;17.60;99.90;;;;;;5043413;28;20442;-75
2023/08/01 07:47:14;;;;;;;7.60;4.80;;;17.60;99.90;;;;;;5039967;28;20592;-73
2023/08/01 07:49:59;;;;;;;5.77;3.60;;;17.70;99.90;;;;;;5040723;28;21019;-73
2023/08/01 07:52:45;;;;;;;6.07;4.17;;;17.50;99.90;;;;;;5041963;28;20782;-74
2023/08/01 07:55:34;;;;;;;8.10;4.80;;;17.50;99.90;;;;;;5040749;28;20988;-73
2023/08/01 07:58:20;;;;;;;10.57;6.73;;;17.60;99.90;;;;;;5044920;28;20945;-72
2023/08/01 08:01:07;;;;;;;5.10;3.77;;;17.60;99.90;;;;;;5038123;28;21337;-75
2023/08/01 08:03:53;;;;;;;8.83;4.43;;;17.60;99.90;;;;;;5033197;28;20434;-75
2023/08/01 08:06:38;;;;;;;8.07;4.30;;;17.60;99.90;;;;;;5037167;28;20503;-74
2023/08/01 08:09:24;;;;;;;6.40;4.33;;;17.70;99.90;;;;;;5039215;28;20966;-74
2023/08/01 08:12:09;;;;;;;4.83;3.70;;;17.70;99.90;;;;;;5037966;28;20462;-72
2023/08/01 08:14:55;;;;;;;5.77;4.13;;;17.70;99.90;;;;;;5032455;28;20419;-73
2023/08/01 08:17:42;;;;;;;6.33;4.10;;;17.70;99.90;;;;;;5035398;28;20451;-72
2023/08/01 08:20:27;;;;;;;5.93;4.03;;;17.60;99.90;;;;;;5041710;28;20464;-72
2023/08/01 08:23:14;;;;;;;6.40;3.77;;;17.70;99.90;;;;;;5040942;28;20523;-73
2023/08/01 08:25:59;;;;;;;4.53;3.30;;;17.70;99.90;;;;;;5040390;28;20487;-73
2023/08/01 08:28:44;;;;;;;6.57;2.83;;;17.80;99.90;;;;;;5042843;28;20878;-72
2023/08/01 08:31:30;;;;;;;8.40;2.03;;;17.50;99.90;;;;;;5035191;28;20471;-72
2023/08/01 08:34:17;;;;;;;3.43;1.80;;;17.20;99.90;;;;;;5040450;28;20521;-72
2023/08/01 08:37:03;;;;;;;2.87;1.33;;;17.10;99.90;;;;;;5037460;28;20787;-72
2023/08/01 08:39:49;;;;;;;5.93;1.73;;;16.90;99.90;;;;;;5039007;28;20445;-73
2023/08/01 08:42:35;;;;;;;6.20;1.43;;;17.00;99.90;;;;;;5039598;28;20462;-72
2023/08/01 08:45:21;;;;;;;2.97;1.10;;;16.80;99.90;;;;;;5036483;28;20585;-73
2023/08/01 08:48:11;;;;;;;3.97;1.80;;;16.80;99.90;;;;;;5037790;28;20554;-74
2023/08/01 08:51:00;;;;;;;2.03;1.30;;;16.70;99.90;;;;;;5042668;28;20630;-74
2023/08/01 08:53:46;;;;;;;6.60;2.03;;;16.80;99.90;;;;;;5042165;28;20676;-72
2023/08/01 08:56:34;;;;;;;2.60;1.97;;;16.80;99.90;;;;;;5039848;28;21257;-72
2023/08/01 08:59:20;;;;;;;3.90;1.60;;;16.90;99.90;;;;;;5046375;28;20411;-72
2023/08/01 09:02:06;;;;;;;4.20;1.63;;;17.00;99.90;;;;;;5043265;28;20971;-72
2023/08/01 09:04:51;;;;;;;3.03;1.70;;;17.20;99.90;;;;;;5040163;28;21258;-72
2023/08/01 09:07:43;;;;;;;3.20;1.50;;;17.20;99.90;;;;;;5040251;28;20553;-73
2023/08/01 09:10:28;;;;;;;4.87;1.30;;;17.30;99.90;;;;;;5043075;28;21010;-71
2023/08/01 09:13:14;;;;;;;3.60;1.73;;;17.50;99.90;;;;;;5047363;28;20439;-71
2023/08/01 09:16:02;;;;;;;2.60;1.23;;;17.80;99.90;;;;;;5036118;28;20801;-72
2023/08/01 09:18:49;;;;;;;3.50;1.87;;;17.90;99.90;;;;;;5040194;28;20506;-72
2023/08/01 09:21:37;;;;;;;4.33;1.60;;;18.10;99.90;;;;;;5047490;28;20887;-72
2023/08/01 09:24:24;;;;;;;3.87;2.23;;;18.20;99.90;;;;;;5042435;28;20447;-72
2023/08/01 09:27:10;;;;;;;1.90;1.20;;;18.30;99.90;;;;;;5043300;28;20501;-72
2023/08/01 09:30:06;;;;;;;1.87;1.13;;;18.30;99.90;;;;;;5043168;28;20447;-72
2023/08/01 09:32:55;;;;;;;2.00;1.30;;;18.40;99.90;;;;;;5051017;28;20446;-72
2023/08/01 09:35:41;;;;;;;2.77;1.67;;;18.60;99.90;;;;;;5048986;28;20798;-72
2023/08/01 09:38:28;;;;;;;3.13;1.73;;;18.80;99.90;;;;;;5051610;28;20624;-72
2023/08/01 09:41:20;;;;;;;3.10;1.47;;;19.00;99.90;;;;;;5039385;28;22148;-72
2023/08/01 09:44:05;;;;;;;2.97;1.43;;;19.30;99.90;;;;;;5038025;28;20446;-72
2023/08/01 09:46:57;;;;;;;3.80;1.40;;;19.40;99.90;;;;;;5036402;28;20531;-72
2023/08/01 09:49:49;;;;;;;2.13;1.37;;;19.50;99.90;;;;;;5038538;28;20454;-72
2023/08/01 09:52:34;;;;;;;5.60;1.87;;;19.40;99.90;;;;;;5046749;28;20855;-73
2023/08/01 09:55:22;;;;;;;2.87;1.60;;;19.50;99.90;;;;;;5040479;28;21018;-73
2023/08/01 09:58:11;;;;;;;3.77;1.50;;;19.50;99.90;;;;;;5048134;28;20453;-72
2023/08/01 10:00:56;;;;;;;4.17;1.60;;;19.60;99.90;;;;;;5043839;28;20511;-72
2023/08/01 10:03:46;;;;;;;4.00;1.73;;;19.50;99.90;;;;;;5045079;28;20537;-72
2023/08/01 10:06:37;;;;;;;2.33;1.40;;;19.40;99.90;;;;;;5046088;28;20969;-72
2023/08/01 10:09:23;;;;;;;4.73;1.80;;;19.30;99.90;;;;;;5045644;28;21038;-72
2023/08/01 10:12:10;;;;;;;4.30;1.60;;;19.20;99.90;;;;;;5047315;28;20427;-73
2023/08/01 10:14:58;;;;;;;6.10;2.10;;;19.20;99.90;;;;;;5044798;28;20477;-73
2023/08/01 10:17:44;;;;;;;2.87;1.80;;;19.10;99.90;;;;;;5046985;28;20447;-74
2023/08/01 10:20:31;;;;;;;3.20;1.80;;;19.00;99.90;;;;;;5045790;28;20831;-74
2023/08/01 10:23:16;;;;;;;3.20;2.13;;;19.00;99.90;;;;;;5050325;28;20444;-72
2023/08/01 10:26:04;;;;;;;3.40;2.20;;;19.00;99.90;;;;;;5038765;28;20485;-73
2023/08/01 10:28:52;;;;;;;5.27;2.20;;;19.00;99.90;;;;;;5036858;28;20448;-74
2023/08/01 10:31:39;;;;;;;4.70;1.77;;;19.00;99.90;;;;;;5051643;28;20454;-74
2023/08/01 10:34:24;;;;;;;2.50;1.57;;;19.00;99.90;;;;;;5051704;28;20968;-74
2023/08/01 10:37:10;;;;;;;2.70;1.63;;;19.10;99.90;;;;;;5049599;28;20444;-73
2023/08/01 10:39:59;;;;;;;2.80;1.43;;;19.40;99.90;;;;;;5044669;28;20444;-74
2023/08/01 10:42:46;;;;;;;3.73;1.30;;;19.70;99.90;;;;;;5048365;28;20459;-74
2023/08/01 10:45:32;;;;;;;2.07;1.10;;;19.90;99.90;;;;;;5054321;28;20558;-74
2023/08/01 10:48:18;;;;;;;2.30;1.30;;;20.20;99.90;;;;;;5042809;28;20490;-73
2023/08/01 10:51:04;;;;;;;12.63;1.43;;;20.40;99.90;;;;;;5044857;28;21154;-74
2023/08/01 10:53:50;;;;;;;2.60;1.20;;;20.70;99.90;;;;;;5049351;28;20941;-73
2023/08/01 10:56:36;;;;;;;2.77;1.20;;;20.70;99.90;;;;;;5049354;28;20420;-74
2023/08/01 10:59:23;;;;;;;2.60;1.27;;;20.90;99.90;;;;;;5045192;28;20436;-73
2023/08/01 11:02:08;;;;;;;2.83;1.20;;;21.00;99.90;;;;;;5046762;28;20498;-73
2023/08/01 11:04:59;;;;;;;3.87;1.40;;;20.90;99.90;;;;;;5045290;28;20961;-74
2023/08/01 11:07:55;;;;;;;3.07;1.20;;;20.70;99.90;;;;;;5049755;28;20422;-74
2023/08/01 11:10:40;;;;;;;4.67;1.30;;;20.40;99.90;;;;;;5048763;28;20514;-73
2023/08/01 11:13:25;;;;;;;4.37;1.20;;;20.20;99.90;;;;;;5051159;28;20413;-74
2023/08/01 11:16:13;;;;;;;2.33;1.20;;;20.00;99.90;;;;;;5047360;28;20744;-73
2023/08/01 11:18:58;;;;;;;3.30;1.20;;;19.80;99.90;;;;;;5043550;28;20432;-74
2023/08/01 11:21:45;;;;;;;2.63;1.30;;;19.40;99.90;;;;;;5044810;28;20432;-73
2023/08/01 11:24:31;;;;;;;3.30;1.57;;;19.20;99.90;;;;;;5047343;28;20426;-73
2023/08/01 11:27:16;;;;;;;2.60;1.30;;;19.20;99.90;;;;;;5045091;28;20492;-73
2023/08/01 11:30:03;;;;;;;2.40;1.27;;;19.10;99.90;;;;;;5042097;28;20450;-73
2023/08/01 11:32:49;;;;;;;1.63;0.90;;;19.20;99.90;;;;;;5044283;28;20439;-74
2023/08/01 11:35:34;;;;;;;2.80;1.43;;;19.30;99.90;;;;;;5044432;28;20783;-73
2023/08/01 11:38:22;;;;;;;2.80;1.60;;;19.50;99.90;;;;;;5040706;28;20418;-73
2023/08/01 11:41:08;;;;;;;5.90;1.37;;;19.70;99.90;;;;;;5044720;28;20496;-73
2023/08/01 11:43:54;;;;;;;3.27;1.60;;;19.90;99.90;;;;;;5042813;28;20430;-73
2023/08/01 11:46:41;;;;;;;3.83;1.50;;;20.20;99.90;;;;;;5046675;28;20418;-73
2023/08/01 11:49:28;;;;;;;2.47;1.57;;;20.60;99.90;;;;;;5041820;28;20556;-73
2023/08/01 11:52:23;;;;;;;3.23;1.33;;;20.80;99.90;;;;;;5042907;28;20478;-73
2023/08/01 11:55:20;;;;;;;7.93;1.20;;;21.00;99.90;;;;;;5043165;28;20466;-73
2023/08/01 11:58:05;;;;;;;5.00;1.37;;;21.20;99.90;;;;;;5047513;28;20420;-73
2023/08/01 12:00:51;;;;;;;2.70;1.33;;;21.50;99.90;;;;;;5043869;28;20438;-73
2023/08/01 12:03:44;;;;;;;4.30;1.17;;;21.70;99.90;;;;;;5047623;28;20417;-73
2023/08/01 12:06:33;;;;;;;2.47;1.30;;;21.80;99.90;;;;;;5051524;28;20417;-73
2023/08/01 12:09:20;;;;;;;2.77;1.17;;;21.90;99.90;;;;;;5044320;28;20428;-73
2023/08/01 12:12:09;;;;;;;3.00;1.50;;;22.00;99.90;;;;;;5047659;28;20974;-73
2023/08/01 12:14:55;;;;;;;4.53;1.53;;;22.10;99.90;;;;;;5042784;28;20479;-73
2023/08/01 12:17:40;;;;;;;5.10;1.23;;;22.00;99.90;;;;;;5044846;28;20420;-73
2023/08/01 12:20:26;;;;;;;4.40;1.70;;;21.60;99.90;;;;;;5046740;28;20478;-73
2023/08/01 12:23:11;;;;;;;2.50;1.30;;;21.50;99.90;;;;;;5048893;28;20467;-73
2023/08/01 12:25:57;;;;;;;3.23;1.57;;;21.50;99.90;;;;;;5045525;28;20431;-73
2023/08/01 12:28:44;;;;;;;2.97;1.97;;;21.60;99.90;;;;;;5048147;28;20464;-73
2023/08/01 12:31:29;;;;;;;4.60;1.77;;;21.70;99.90;;;;;;5042731;28;20475;-73
2023/08/01 12:34:15;;;;;;;3.50;1.73;;;21.50;99.90;;;;;;5051356;28;20489;-73
2023/08/01 12:37:00;;;;;;;9.50;1.60;;;21.50;99.90;;;;;;5043430;28;20988;-73
2023/08/01 12:39:46;;;;;;;3.73;1.47;;;21.80;99.90;;;;;;5042124;28;20459;-73
2023/08/01 12:42:31;;;;;;;4.87;1.50;;;21.80;99.90;;;;;;5046699;28;20782;-73
2023/08/01 12:45:19;;;;;;;3.80;1.53;;;21.70;99.90;;;;;;5046565;28;20445;-73
2023/08/01 12:48:04;;;;;;;3.93;1.87;;;21.60;99.90;;;;;;5044771;28;20948;-73
2023/08/01 12:50:49;;;;;;;6.60;1.47;;;21.70;99.90;;;;;;5046687;28;20545;-73
2023/08/01 12:53:35;;;;;;;3.67;1.53;;;21.50;99.90;;;;;;5049728;28;22058;-73
2023/08/01 12:56:20;;;;;;;3.03;1.30;;;21.40;99.90;;;;;;5039627;28;20417;-73
2023/08/01 12:59:06;;;;;;;3.40;1.70;;;21.30;99.90;;;;;;5044580;28;20901;-73
2023/08/01 13:01:53;;;;;;;3.10;1.47;;;21.30;99.90;;;;;;5039950;28;20455;-73
2023/08/01 13:04:38;;;;;;;3.40;1.43;;;21.30;99.90;;;;;;5039695;28;20451;-74
2023/08/01 13:07:24;;;;;;;5.50;1.90;;;21.20;99.90;;;;;;5042820;28;20485;-73
2023/08/01 13:10:10;;;;;;;5.13;2.20;;;21.10;99.90;;;;;;5042018;28;20471;-73
2023/08/01 13:12:55;;;;;;;2.53;1.13;;;21.10;99.90;;;;;;5037644;28;20472;-73
2023/08/01 13:15:41;;;;;;;3.13;1.63;;;21.10;99.90;;;;;;5041215;28;20813;-73
2023/08/01 13:18:27;;;;;;;8.83;1.70;;;21.10;99.90;;;;;;5038696;28;20949;-74
2023/08/01 13:21:14;;;;;;;4.40;2.03;;;21.10;99.90;;;;;;5040816;28;20575;-73
2023/08/01 13:23:59;;;;;;;3.20;1.90;;;21.20;99.90;;;;;;5044044;28;20843;-73
2023/08/01 13:26:44;;;;;;;4.90;1.73;;;21.30;99.90;;;;;;5046552;28;20540;-73
2023/08/01 13:29:30;;;;;;;5.40;2.20;;;21.30;99.90;;;;;;5045898;28;20554;-73
2023/08/01 13:32:15;;;;;;;6.07;1.60;;;21.40;99.90;;;;;;5040358;28;20476;-73
2023/08/01 13:35:02;;;;;;;7.73;1.80;;;21.10;99.90;;;;;;5043878;28;20444;-73
2023/08/01 13:37:48;;;;;;;4.17;1.87;;;21.00;99.90;;;;;;5040437;28;20443;-73
2023/08/01 13:40:35;;;;;;;2.70;1.50;;;21.00;99.90;;;;;;5038862;28;20454;-73
2023/08/01 13:43:20;;;;;;;6.13;1.90;;;21.20;99.90;;;;;;5042940;28;20443;-73
2023/08/01 13:46:12;;;;;;;2.77;1.20;;;21.30;99.90;;;;;;5040083;28;20438;-73
2023/08/01 13:48:58;;;;;;;3.10;1.50;;;21.60;91.90;;;;;;5046838;28;20429;-73
2023/08/01 13:51:44;;;;;;;2.97;1.40;;;21.90;74.50;;;;;;5044916;28;21047;-73
2023/08/01 13:54:30;;;;;;;2.40;1.40;;;22.20;72.40;;;;;;5042547;28;20589;-74
2023/08/01 13:57:15;;;;;;;7.27;1.93;;;22.40;71.30;;;;;;5043021;28;20468;-73
2023/08/01 14:00:01;;;;;;;3.60;1.70;;;22.40;70.30;;;;;;5041667;28;20459;-73
2023/08/01 14:02:46;;;;;;;2.40;1.37;;;22.30;64.30;;;;;;5040463;28;20526;-73
2023/08/01 14:05:32;;;;;;;2.70;1.57;;;22.10;76.80;;;;;;5040699;28;20446;-73
2023/08/01 14:08:19;;;;;;;6.83;2.10;;;22.10;74.30;;;;;;5046048;28;20447;-73
2023/08/01 14:11:05;;;;;;;2.93;2.00;;;22.40;92.60;;;;;;5039432;28;21032;-73
2023/08/01 14:13:51;;;;;;;7.40;1.60;;;22.80;75.70;;;;;;5039036;28;20448;-73
2023/08/01 14:16:37;;;;;;;5.40;1.77;;;22.70;69.10;;;;;;5036854;28;20845;-74
2023/08/01 14:19:22;;;;;;;4.17;2.03;;;22.80;75.60;;;;;;5034868;28;20440;-74
2023/08/01 14:22:08;;;;;;;3.40;1.53;;;23.00;76.40;;;;;;5036214;28;23004;-73
2023/08/01 14:24:55;;;;;;;4.70;1.90;;;23.00;86.40;;;;;;5044332;28;20443;-73